Time;durP1;ratioP1;P1;durP2;ratioP2;P2;SDS_P1;SDS_P2;PMS_P1;PMS_P2;Temp;Humidity;BMP_temperature;BMP_pressure;BME280_temperature;BME280_humidity;BME280_pressure;Samples;Min_cycle;Max_cycle;Signal;HPM_P1;HPM_P2
2023/07/19 00:00:10;;;;;;;7.97;4.07;;;;;;;;;;6235270;28;20198;-66
2023/07/19 00:03:11;;;;;;;9.23;4.60;;;;;;;;;;6264820;28;20209;-66
2023/07/19 00:06:12;;;;;;;5.67;3.93;;;;;;;;;;6255025;28;20194;-66
2023/07/19 00:09:13;;;;;;;11.13;4.83;;;;;;;;;;6247305;28;20194;-66
2023/07/19 00:12:14;;;;;;;7.17;4.70;;;;;;;;;;6244161;28;20191;-66
2023/07/19 00:15:16;;;;;;;7.33;4.03;;;;;;;;;;6265392;28;20185;-66
2023/07/19 00:18:17;;;;;;;9.97;4.30;;;;;;;;;;6269379;28;20189;-66
2023/07/19 00:21:19;;;;;;;7.23;4.37;;;;;;;;;;6256589;28;20293;-66
2023/07/19 00:24:20;;;;;;;10.20;5.03;;;;;;;;;;6265736;28;20197;-66
2023/07/19 00:27:21;;;;;;;9.60;4.37;;;;;;;;;;6246438;28;20212;-66
2023/07/19 00:55:55;;;;;;;7.50;3.90;;;;;;;;;;6259424;28;20183;-66
2023/07/19 00:58:56;;;;;;;9.00;4.17;;;;;;;;;;6258539;28;20191;-66
2023/07/19 01:01:57;;;;;;;13.80;4.83;;;;;;;;;;6235404;28;20234;-66
2023/07/19 01:04:58;;;;;;;11.83;4.40;;;;;;;;;;6245559;28;20194;-66
2023/07/19 01:08:00;;;;;;;5.90;3.83;;;;;;;;;;6263011;28;20184;-66
2023/07/19 01:11:01;;;;;;;7.70;3.97;;;;;;;;;;6244760;28;20194;-66
2023/07/19 01:14:02;;;;;;;7.37;4.17;;;;;;;;;;6280805;28;20200;-66
2023/07/19 01:17:03;;;;;;;11.50;5.17;;;;;;;;;;6263709;28;20186;-66
2023/07/19 01:20:06;;;;;;;8.10;4.47;;;;;;;;;;6240202;28;20205;-66
2023/07/19 01:23:07;;;;;;;11.00;4.43;;;;;;;;;;6277096;28;20262;-66
2023/07/19 01:26:08;;;;;;;10.40;4.40;;;;;;;;;;6262656;28;20197;-66
2023/07/19 01:29:09;;;;;;;8.07;4.73;;;;;;;;;;6258642;28;20238;-66
2023/07/19 01:32:10;;;;;;;13.63;4.37;;;;;;;;;;6253387;28;20193;-66
2023/07/19 01:35:11;;;;;;;10.10;4.43;;;;;;;;;;6266606;28;20248;-66
2023/07/19 01:38:12;;;;;;;8.27;4.37;;;;;;;;;;6261434;28;20183;-66
2023/07/19 01:41:13;;;;;;;10.57;4.40;;;;;;;;;;6246581;28;20219;-66
2023/07/19 01:44:15;;;;;;;8.47;4.10;;;;;;;;;;6254557;28;20193;-66
2023/07/19 01:47:16;;;;;;;8.43;4.43;;;;;;;;;;6234940;28;20197;-66
2023/07/19 01:50:26;;;;;;;8.00;4.83;;;;;;;;;;6265865;28;20316;-66
2023/07/19 01:53:27;;;;;;;6.13;4.20;;;;;;;;;;6237844;28;20204;-66
2023/07/19 01:56:28;;;;;;;8.57;4.70;;;;;;;;;;6269988;28;20189;-66
2023/07/19 01:59:29;;;;;;;10.60;4.13;;;;;;;;;;6253472;28;20207;-66
2023/07/19 02:02:30;;;;;;;7.57;4.20;;;;;;;;;;6263172;28;20239;-66
2023/07/19 02:05:31;;;;;;;11.53;4.50;;;;;;;;;;6240994;28;21178;-66
2023/07/19 02:08:32;;;;;;;9.30;4.47;;;;;;;;;;6245534;28;20251;-66
2023/07/19 02:11:34;;;;;;;7.63;4.40;;;;;;;;;;6252228;28;20190;-66
2023/07/19 02:14:35;;;;;;;9.13;4.23;;;;;;;;;;6241259;28;20226;-66
2023/07/19 02:17:36;;;;;;;5.37;4.00;;;;;;;;;;6248776;28;20201;-66
2023/07/19 02:20:38;;;;;;;10.73;4.23;;;;;;;;;;6257644;28;20186;-66
2023/07/19 02:23:39;;;;;;;12.03;4.80;;;;;;;;;;6251070;28;20194;-66
2023/07/19 02:26:41;;;;;;;10.57;4.60;;;;;;;;;;6278222;28;20189;-66
2023/07/19 02:29:42;;;;;;;7.57;4.43;;;;;;;;;;6245019;28;20252;-66
2023/07/19 02:32:43;;;;;;;7.80;3.93;;;;;;;;;;6247832;28;20190;-66
2023/07/19 02:35:44;;;;;;;12.10;4.43;;;;;;;;;;6251315;28;20257;-66
2023/07/19 02:38:45;;;;;;;11.60;4.53;;;;;;;;;;6244840;28;20193;-66
2023/07/19 02:41:47;;;;;;;10.00;4.47;;;;;;;;;;6253578;28;20225;-66
2023/07/19 02:44:48;;;;;;;9.30;4.30;;;;;;;;;;6256523;28;20189;-66
2023/07/19 02:47:49;;;;;;;8.40;4.00;;;;;;;;;;6255784;28;20213;-66
2023/07/19 02:50:50;;;;;;;8.13;4.67;;;;;;;;;;6247907;28;20281;-66
2023/07/19 02:53:51;;;;;;;7.00;4.40;;;;;;;;;;6253374;28;20276;-66
2023/07/19 02:56:52;;;;;;;11.50;4.70;;;;;;;;;;6255591;28;20189;-66
2023/07/19 02:59:53;;;;;;;6.43;4.43;;;;;;;;;;6253291;28;20239;-66
2023/07/19 03:02:55;;;;;;;9.87;4.83;;;;;;;;;;6245831;28;20242;-66
2023/07/19 03:05:56;;;;;;;7.77;4.73;;;;;;;;;;6253646;28;20186;-66
2023/07/19 03:08:57;;;;;;;10.17;4.57;;;;;;;;;;6247184;28;20188;-66
2023/07/19 03:11:58;;;;;;;6.17;4.47;;;;;;;;;;6246333;28;20201;-66
2023/07/19 03:14:59;;;;;;;12.40;4.30;;;;;;;;;;6272934;28;20210;-66
2023/07/19 03:18:01;;;;;;;9.10;4.80;;;;;;;;;;6245369;28;20194;-66
2023/07/19 03:21:02;;;;;;;6.20;4.23;;;;;;;;;;6258592;28;20263;-66
2023/07/19 03:24:03;;;;;;;11.73;4.90;;;;;;;;;;6255117;28;20182;-66
2023/07/19 03:27:04;;;;;;;9.17;4.40;;;;;;;;;;6272727;28;20190;-66
2023/07/19 03:30:06;;;;;;;6.57;4.23;;;;;;;;;;6278437;28;20233;-66
2023/07/19 03:33:09;;;;;;;9.27;4.60;;;;;;;;;;6248117;28;20221;-66
2023/07/19 03:36:10;;;;;;;10.27;4.33;;;;;;;;;;6259517;28;20190;-66
2023/07/19 03:39:11;;;;;;;8.13;4.20;;;;;;;;;;6250767;28;20209;-66
2023/07/19 03:42:12;;;;;;;8.40;4.17;;;;;;;;;;6244165;28;20214;-66
2023/07/19 03:45:13;;;;;;;6.80;4.30;;;;;;;;;;6266459;28;20194;-66
2023/07/19 03:48:14;;;;;;;10.53;3.90;;;;;;;;;;6252401;28;20195;-67
2023/07/19 03:51:15;;;;;;;8.00;4.57;;;;;;;;;;6251977;28;20189;-69
2023/07/19 03:54:17;;;;;;;9.87;4.90;;;;;;;;;;6251550;28;20193;-69
2023/07/19 03:57:18;;;;;;;9.00;4.73;;;;;;;;;;6281900;28;20198;-68
2023/07/19 04:00:19;;;;;;;7.17;3.73;;;;;;;;;;6243147;28;20196;-68
2023/07/19 04:03:21;;;;;;;7.87;4.40;;;;;;;;;;6253452;28;20213;-68
2023/07/19 04:06:22;;;;;;;12.27;4.43;;;;;;;;;;6270447;28;20194;-69
2023/07/19 04:09:23;;;;;;;11.33;4.73;;;;;;;;;;6252907;28;20189;-68
2023/07/19 04:12:24;;;;;;;9.50;4.73;;;;;;;;;;6251015;28;20226;-68
2023/07/19 04:15:25;;;;;;;9.93;4.47;;;;;;;;;;6241548;28;20195;-68
2023/07/19 04:18:26;;;;;;;8.73;4.10;;;;;;;;;;6274765;28;20200;-68
2023/07/19 04:21:27;;;;;;;9.97;4.43;;;;;;;;;;6262610;28;20213;-68
2023/07/19 04:24:28;;;;;;;7.23;4.37;;;;;;;;;;6256233;28;20189;-68
2023/07/19 04:27:31;;;;;;;10.10;3.73;;;;;;;;;;6248495;28;20198;-68
2023/07/19 04:30:32;;;;;;;5.87;3.90;;;;;;;;;;6251269;28;20281;-68
2023/07/19 04:33:33;;;;;;;8.87;3.83;;;;;;;;;;6248546;28;20247;-68
2023/07/19 04:36:34;;;;;;;8.20;4.40;;;;;;;;;;6260575;28;20189;-68
2023/07/19 04:39:35;;;;;;;7.47;4.07;;;;;;;;;;6240551;28;20296;-68
2023/07/19 04:42:36;;;;;;;8.00;4.13;;;;;;;;;;6272362;28;20220;-68
2023/07/19 04:45:37;;;;;;;13.23;5.07;;;;;;;;;;6249970;28;20190;-68
2023/07/19 04:48:39;;;;;;;6.20;4.10;;;;;;;;;;6248243;28;20187;-68
2023/07/19 04:51:40;;;;;;;6.30;4.00;;;;;;;;;;6269647;28;20287;-68
2023/07/19 04:54:42;;;;;;;7.77;4.10;;;;;;;;;;6268909;28;20269;-68
2023/07/19 04:57:43;;;;;;;8.93;4.17;;;;;;;;;;6261046;28;20248;-69
2023/07/19 05:00:44;;;;;;;10.70;4.33;;;;;;;;;;6283878;28;20245;-68
2023/07/19 05:03:45;;;;;;;6.77;4.00;;;;;;;;;;6259281;28;20280;-68
2023/07/19 05:06:46;;;;;;;8.17;4.13;;;;;;;;;;6247602;28;20194;-68
2023/07/19 05:09:47;;;;;;;5.60;4.23;;;;;;;;;;6250114;28;20264;-68
2023/07/19 05:12:48;;;;;;;7.27;4.20;;;;;;;;;;6253077;28;20186;-68
2023/07/19 05:15:49;;;;;;;8.50;4.63;;;;;;;;;;6242818;28;20194;-68
2023/07/19 05:19:11;;;;;;;11.90;4.97;;;;;;;;;;6254022;28;20193;-68
2023/07/19 05:22:12;;;;;;;9.90;4.87;;;;;;;;;;6251151;28;20272;-67
2023/07/19 05:25:13;;;;;;;8.47;3.77;;;;;;;;;;6248300;28;20194;-68
2023/07/19 05:28:14;;;;;;;11.33;5.43;;;;;;;;;;6274496;28;20281;-68
2023/07/19 05:31:15;;;;;;;14.77;6.00;;;;;;;;;;6269296;28;20185;-68
2023/07/19 05:34:16;;;;;;;10.93;4.60;;;;;;;;;;6236427;28;20209;-68
2023/07/19 05:37:17;;;;;;;8.63;3.77;;;;;;;;;;6280443;28;20205;-68
2023/07/19 05:40:18;;;;;;;6.77;4.10;;;;;;;;;;6266480;28;20194;-68
2023/07/19 05:43:19;;;;;;;12.03;5.17;;;;;;;;;;6245480;28;20261;-67
2023/07/19 05:46:20;;;;;;;14.37;6.47;;;;;;;;;;6279583;28;20193;-68
2023/07/19 05:49:21;;;;;;;10.53;5.03;;;;;;;;;;6282428;28;20193;-68
2023/07/19 05:52:22;;;;;;;6.53;3.87;;;;;;;;;;6248334;28;20194;-68
2023/07/19 05:55:24;;;;;;;9.27;4.00;;;;;;;;;;6245090;28;20198;-68
2023/07/19 05:58:27;;;;;;;9.13;4.53;;;;;;;;;;6264295;28;20202;-69
2023/07/19 06:01:29;;;;;;;13.97;4.27;;;;;;;;;;6264161;28;20264;-68
2023/07/19 06:04:30;;;;;;;7.87;3.90;;;;;;;;;;6270893;28;20293;-68
2023/07/19 06:07:31;;;;;;;10.70;4.90;;;;;;;;;;6254413;28;20189;-68
2023/07/19 06:10:32;;;;;;;8.43;4.30;;;;;;;;;;6245440;28;20194;-67
2023/07/19 06:13:33;;;;;;;13.13;4.87;;;;;;;;;;6244623;28;20254;-66
2023/07/19 06:16:34;;;;;;;6.80;4.23;;;;;;;;;;6261871;28;20194;-67
2023/07/19 06:19:35;;;;;;;9.30;4.23;;;;;;;;;;6250715;28;20189;-67
2023/07/19 06:22:37;;;;;;;7.27;3.67;;;;;;;;;;6260714;28;20236;-67
2023/07/19 06:25:38;;;;;;;8.10;3.70;;;;;;;;;;6246918;28;20235;-68
2023/07/19 06:28:39;;;;;;;5.37;3.53;;;;;;;;;;6262257;28;20233;-70
2023/07/19 06:31:40;;;;;;;6.27;4.00;;;;;;;;;;6243614;28;20197;-68
2023/07/19 06:34:41;;;;;;;9.73;4.13;;;;;;;;;;6265925;28;20189;-68
2023/07/19 06:37:43;;;;;;;6.97;4.10;;;;;;;;;;6248678;28;20201;-69
2023/07/19 06:40:44;;;;;;;6.53;4.07;;;;;;;;;;6244992;28;20194;-69
2023/07/19 06:43:45;;;;;;;10.23;4.63;;;;;;;;;;6248831;28;20200;-69
2023/07/19 06:46:46;;;;;;;10.47;4.43;;;;;;;;;;6251561;28;20190;-69
2023/07/19 06:49:47;;;;;;;11.50;5.80;;;;;;;;;;6247945;28;20239;-68
2023/07/19 06:52:48;;;;;;;7.03;4.27;;;;;;;;;;6237954;28;20205;-69
2023/07/19 06:55:52;;;;;;;5.87;4.00;;;;;;;;;;6268908;28;20194;-69
2023/07/19 06:58:53;;;;;;;6.60;4.23;;;;;;;;;;6254860;28;20289;-69
2023/07/19 07:01:54;;;;;;;6.67;3.80;;;;;;;;;;6250943;28;20229;-69
2023/07/19 07:04:55;;;;;;;5.77;3.97;;;;;;;;;;6254962;28;20243;-68
2023/07/19 07:07:56;;;;;;;5.53;4.07;;;;;;;;;;6254700;28;20186;-68
2023/07/19 07:10:59;;;;;;;7.13;4.07;;;;;;;;;;6248352;28;20199;-68
2023/07/19 07:14:00;;;;;;;7.27;4.10;;;;;;;;;;6266520;28;20198;-69
2023/07/19 07:17:02;;;;;;;11.10;4.40;;;;;;;;;;6265884;28;20193;-68
2023/07/19 07:20:04;;;;;;;8.67;4.47;;;;;;;;;;6251827;28;20195;-68
2023/07/19 07:23:05;;;;;;;10.90;4.13;;;;;;;;;;6245958;28;20210;-68
2023/07/19 07:26:06;;;;;;;8.03;4.13;;;;;;;;;;6246303;28;20257;-68
2023/07/19 07:29:07;;;;;;;5.87;4.00;;;;;;;;;;6251115;28;20257;-66
2023/07/19 07:32:11;;;;;;;8.77;4.37;;;;;;;;;;6259152;28;20193;-68
2023/07/19 07:35:12;;;;;;;7.73;4.50;;;;;;;;;;6265695;28;20191;-67
2023/07/19 07:38:14;;;;;;;5.77;3.90;;;;;;;;;;6267100;28;20281;-68
2023/07/19 07:41:15;;;;;;;8.50;3.70;;;;;;;;;;6266304;28;20216;-68
2023/07/19 07:44:16;;;;;;;8.17;4.30;;;;;;;;;;6247150;28;20276;-68
2023/07/19 07:47:18;;;;;;;5.07;3.50;;;;;;;;;;6237950;28;20190;-69
2023/07/19 07:50:19;;;;;;;6.90;4.00;;;;;;;;;;6274474;28;20249;-69
2023/07/19 07:53:21;;;;;;;5.77;3.67;;;;;;;;;;6249603;28;20198;-69
2023/07/19 07:56:23;;;;;;;7.70;4.10;;;;;;;;;;6263073;28;20194;-69
2023/07/19 07:59:25;;;;;;;6.70;4.50;;;;;;;;;;6250442;28;20201;-69
2023/07/19 08:02:26;;;;;;;7.67;4.63;;;;;;;;;;6239765;28;20209;-69
2023/07/19 08:05:27;;;;;;;8.17;4.60;;;;;;;;;;6250723;28;20225;-68
2023/07/19 08:08:28;;;;;;;6.93;4.33;;;;;;;;;;6246049;28;20272;-69
2023/07/19 08:11:31;;;;;;;8.47;4.40;;;;;;;;;;6251108;28;20197;-69
2023/07/19 08:14:33;;;;;;;8.93;3.90;;;;;;;;;;6243809;28;20195;-69
2023/07/19 08:17:34;;;;;;;9.47;4.43;;;;;;;;;;6249963;28;20285;-69
2023/07/19 08:20:35;;;;;;;8.17;3.93;;;;;;;;;;6245175;28;20193;-69
2023/07/19 08:23:36;;;;;;;7.40;4.33;;;;;;;;;;6254245;28;20214;-69
2023/07/19 08:26:37;;;;;;;6.13;3.87;;;;;;;;;;6248712;28;20238;-69
2023/07/19 08:29:38;;;;;;;6.53;4.00;;;;;;;;;;6248111;28;20245;-69
2023/07/19 08:32:39;;;;;;;7.33;4.50;;;;;;;;;;6247899;28;20190;-71
2023/07/19 08:35:40;;;;;;;5.33;3.70;;;;;;;;;;6256976;28;20190;-71
2023/07/19 08:38:41;;;;;;;5.60;4.43;;;;;;;;;;6246239;28;20201;-71
2023/07/19 08:41:44;;;;;;;5.93;4.27;;;;;;;;;;6250925;28;20218;-71
2023/07/19 08:44:47;;;;;;;9.57;4.80;;;;;;;;;;6269816;28;20221;-71
2023/07/19 08:47:48;;;;;;;6.80;3.97;;;;;;;;;;6242642;28;20243;-65
2023/07/19 08:51:00;;;;;;;7.70;4.20;;;;;;;;;;6271160;28;20182;-69
2023/07/19 08:54:01;;;;;;;7.60;4.50;;;;;;;;;;6272571;28;20198;-69
2023/07/19 08:57:04;;;;;;;7.20;4.40;;;;;;;;;;6249250;28;20201;-69
2023/07/19 09:00:07;;;;;;;5.50;4.30;;;;;;;;;;6257718;28;20185;-69
2023/07/19 09:03:09;;;;;;;7.60;3.90;;;;;;;;;;6251546;28;20214;-69
2023/07/19 09:06:10;;;;;;;7.07;4.30;;;;;;;;;;6268130;28;20289;-69
2023/07/19 09:09:13;;;;;;;7.67;4.30;;;;;;;;;;6256368;28;20265;-69
2023/07/19 09:12:16;;;;;;;6.67;3.90;;;;;;;;;;6249533;28;20198;-69
2023/07/19 09:15:17;;;;;;;4.90;3.73;;;;;;;;;;6253430;28;20190;-68
2023/07/19 09:18:18;;;;;;;6.40;4.20;;;;;;;;;;6255089;28;20183;-69
2023/07/19 09:21:37;;;;;;;5.77;4.03;;;;;;;;;;6242489;28;20217;-68
2023/07/19 09:24:52;;;;;;;8.13;4.10;;;;;;;;;;6258109;28;20214;-68
2023/07/19 09:27:54;;;;;;;7.33;4.87;;;;;;;;;;6256998;28;20254;-68
2023/07/19 09:31:05;;;;;;;6.40;4.23;;;;;;;;;;6253549;28;20213;-67
2023/07/19 09:34:07;;;;;;;7.17;4.77;;;;;;;;;;6263448;28;20185;-69
2023/07/19 09:37:10;;;;;;;9.20;4.53;;;;;;;;;;6252259;28;20236;-69
2023/07/19 09:40:11;;;;;;;7.70;4.07;;;;;;;;;;6252921;28;20200;-69
2023/07/19 09:43:14;;;;;;;6.93;3.90;;;;;;;;;;6239238;28;20210;-69
2023/07/19 09:46:15;;;;;;;5.40;4.40;;;;;;;;;;6259594;28;20266;-69
2023/07/19 09:49:16;;;;;;;10.60;4.80;;;;;;;;;;6245343;28;20222;-69
2023/07/19 09:52:18;;;;;;;7.53;4.07;;;;;;;;;;6246517;28;20253;-69
2023/07/19 09:55:20;;;;;;;9.77;4.77;;;;;;;;;;6240773;28;20190;-69
2023/07/19 09:58:22;;;;;;;5.47;4.43;;;;;;;;;;6264029;28;20222;-69
2023/07/19 10:01:23;;;;;;;10.90;4.40;;;;;;;;;;6252408;28;20268;-69
2023/07/19 10:04:28;;;;;;;8.53;5.13;;;;;;;;;;6250211;28;20192;-69
2023/07/19 10:07:30;;;;;;;6.77;4.60;;;;;;;;;;6256929;28;20296;-67
2023/07/19 10:10:37;;;;;;;8.10;4.57;;;;;;;;;;6250808;28;20198;-69
2023/07/19 10:13:56;;;;;;;7.37;4.53;;;;;;;;;;6261328;28;20202;-67
2023/07/19 10:17:01;;;;;;;7.27;4.27;;;;;;;;;;6252253;28;20188;-67
2023/07/19 10:20:14;;;;;;;7.70;4.80;;;;;;;;;;6261825;28;20187;-67
2023/07/19 10:23:15;;;;;;;7.87;4.03;;;;;;;;;;6265403;28;20215;-67
2023/07/19 10:26:28;;;;;;;8.60;4.20;;;;;;;;;;6245601;28;20198;-67
2023/07/19 10:29:39;;;;;;;8.83;4.73;;;;;;;;;;6259485;28;20238;-67
2023/07/19 10:32:40;;;;;;;8.53;4.83;;;;;;;;;;6257575;28;20276;-67
2023/07/19 10:35:42;;;;;;;7.90;4.30;;;;;;;;;;6249770;28;20195;-67
2023/07/19 10:38:43;;;;;;;6.37;4.50;;;;;;;;;;6248061;28;20194;-67
2023/07/19 10:41:49;;;;;;;6.67;4.53;;;;;;;;;;6245211;28;20214;-67
2023/07/19 10:44:50;;;;;;;6.37;4.50;;;;;;;;;;6263198;28;20189;-67
2023/07/19 10:47:51;;;;;;;5.50;4.07;;;;;;;;;;6253594;28;20193;-67
2023/07/19 10:50:55;;;;;;;7.43;4.33;;;;;;;;;;6256238;28;20205;-67
2023/07/19 10:53:58;;;;;;;9.73;5.13;;;;;;;;;;6263332;28;20226;-67
2023/07/19 10:57:00;;;;;;;8.73;4.13;;;;;;;;;;6253873;28;20218;-67
2023/07/19 11:00:03;;;;;;;10.63;4.73;;;;;;;;;;6249955;28;20277;-67
2023/07/19 11:03:05;;;;;;;9.07;4.33;;;;;;;;;;6261071;28;20230;-67
2023/07/19 11:06:08;;;;;;;5.97;4.37;;;;;;;;;;6268349;28;20198;-67
2023/07/19 11:09:10;;;;;;;5.80;4.47;;;;;;;;;;6269017;28;20236;-67
2023/07/19 11:12:11;;;;;;;8.70;4.50;;;24.50;79.70;;;;;;6270182;28;20201;-67
2023/07/19 11:15:11;;;;;;;7.57;4.50;;;24.60;76.80;;;;;;6268467;28;20289;-66
2023/07/19 11:18:12;;;;;;;5.77;4.17;;;24.50;79.80;;;;;;6268539;28;20284;-66
2023/07/19 11:21:27;;;;;;;6.50;4.70;;;24.50;79.40;;;;;;6266221;28;20358;-67
2023/07/19 11:24:55;;;;;;;7.87;4.43;;;24.50;82.30;;;;;;6241350;28;20184;-66
2023/07/19 11:27:55;;;;;;;8.67;4.77;;;24.50;80.30;;;;;;6253205;28;20241;-67
2023/07/19 11:30:56;;;;;;;9.23;4.43;;;24.60;83.90;;;;;;6250587;28;20198;-67
2023/07/19 11:34:01;;;;;;;10.53;4.43;;;24.70;72.70;;;;;;6250799;28;20186;-67
2023/07/19 11:37:03;;;;;;;7.63;4.30;;;25.00;77.20;;;;;;6252757;28;20201;-67
2023/07/19 11:40:05;;;;;;;9.23;4.27;;;24.90;79.70;;;;;;6251395;28;20194;-67
2023/07/19 11:43:06;;;;;;;9.20;4.57;;;24.80;81.20;;;;;;6241135;28;20214;-67
2023/07/19 11:46:06;;;;;;;8.83;4.37;;;24.80;83.00;;;;;;6243961;28;20214;-67
2023/07/19 11:49:09;;;;;;;6.67;3.97;;;24.70;83.90;;;;;;6251614;28;20218;-67
2023/07/19 11:52:10;;;;;;;9.93;4.33;;;24.60;85.00;;;;;;6254420;28;20244;-67
2023/07/19 11:55:11;;;;;;;8.87;4.37;;;24.50;85.70;;;;;;6241662;28;20194;-67
2023/07/19 11:58:12;;;;;;;13.03;4.83;;;24.50;81.30;;;;;;6238633;28;20225;-67
2023/07/19 12:01:13;;;;;;;10.63;4.27;;;24.40;85.10;;;;;;6245461;28;20210;-67
2023/07/19 12:04:15;;;;;;;8.83;4.30;;;24.40;86.20;;;;;;6272250;28;20194;-67
2023/07/19 12:07:15;;;;;;;9.53;4.97;;;24.40;86.10;;;;;;6258951;28;20210;-67
2023/07/19 12:10:20;;;;;;;6.63;3.87;;;24.50;86.50;;;;;;6258747;28;20278;-67
2023/07/19 12:13:22;;;;;;;9.20;4.60;;;24.50;86.40;;;;;;6255132;28;20632;-67
2023/07/19 12:16:23;;;;;;;7.07;4.67;;;24.50;87.20;;;;;;6260438;28;20193;-67
2023/07/19 12:19:24;;;;;;;5.93;4.93;;;24.60;87.00;;;;;;6251352;28;20333;-67
2023/07/19 12:22:27;;;;;;;6.77;4.87;;;24.70;87.60;;;;;;6253980;28;20300;-67
2023/07/19 12:25:28;;;;;;;9.77;4.97;;;;;;;;;;6246390;28;20191;-67
2023/07/19 12:28:29;;;;;;;7.23;4.70;;;25.00;84.80;;;;;;6236089;28;20241;-67
2023/07/19 12:31:30;;;;;;;11.03;4.73;;;25.10;85.10;;;;;;6275387;28;20214;-67
2023/07/19 12:34:31;;;;;;;7.90;4.57;;;25.40;83.80;;;;;;6248054;28;20193;-67
2023/07/19 12:37:33;;;;;;;7.33;4.57;;;25.60;80.90;;;;;;6252200;28;20202;-67
2023/07/19 12:40:33;;;;;;;7.27;4.60;;;25.80;78.20;;;;;;6261167;28;20186;-67
2023/07/19 12:43:34;;;;;;;6.97;4.60;;;26.00;80.50;;;;;;6268597;28;20218;-67
2023/07/19 12:46:38;;;;;;;8.30;4.50;;;;;;;;;;6242575;28;20195;-67
2023/07/19 12:49:39;;;;;;;6.60;4.63;;;;;;;;;;6281705;28;20196;-64
2023/07/19 12:52:44;;;;;;;11.73;4.80;;;26.40;77.20;;;;;;6257387;28;20181;-64
2023/07/19 12:55:46;;;;;;;12.80;4.77;;;26.50;79.10;;;;;;6271062;28;20190;-65
2023/07/19 12:58:47;;;;;;;5.50;4.27;;;26.40;79.90;;;;;;6266024;28;20187;-65
2023/07/19 13:01:49;;;;;;;6.40;4.53;;;26.20;78.50;;;;;;6262357;28;20251;-67
2023/07/19 13:04:49;;;;;;;10.10;4.80;;;26.10;78.30;;;;;;6261543;28;20243;-67
2023/07/19 13:07:50;;;;;;;11.03;4.97;;;;;;;;;;6264930;28;20214;-65
2023/07/19 13:10:51;;;;;;;6.67;4.43;;;;;;;;;;6247092;28;20278;-69
2023/07/19 13:13:53;;;;;;;9.87;5.30;;;25.80;79.50;;;;;;6281765;28;20242;-67
2023/07/19 13:16:54;;;;;;;8.97;4.90;;;25.30;81.10;;;;;;6253587;28;20240;-67
2023/07/19 13:19:56;;;;;;;10.07;5.00;;;25.20;81.70;;;;;;6227855;28;20187;-65
2023/07/19 13:22:57;;;;;;;7.73;4.70;;;;;;;;;;6261226;28;20214;-66
2023/07/19 13:25:59;;;;;;;7.50;5.20;;;;;;;;;;6256391;28;20181;-66
2023/07/19 13:29:00;;;;;;;7.67;4.53;;;;;;;;;;6255155;28;20243;-65
2023/07/19 13:32:01;;;;;;;7.57;5.13;;;;;;;;;;6246437;28;20216;-67
2023/07/19 13:35:02;;;;;;;10.50;4.70;;;;;;;;;;6268833;28;20198;-67
2023/07/19 13:38:03;;;;;;;7.27;4.77;;;;;;;;;;6238036;28;20194;-67
2023/07/19 13:41:05;;;;;;;10.57;5.57;;;;;;;;;;6255724;28;20189;-68
2023/07/19 13:44:06;;;;;;;7.30;5.20;;;;;;;;;;6256112;28;20224;-68
2023/07/19 13:47:07;;;;;;;8.33;6.07;;;;;;;;;;6244017;28;20200;-68
2023/07/19 13:50:08;;;;;;;9.63;5.77;;;;;;;;;;6247780;28;20201;-66
2023/07/19 13:53:09;;;;;;;11.67;6.63;;;;;;;;;;6243501;28;20214;-67
2023/07/19 13:56:11;;;;;;;8.27;5.47;;;;;;;;;;6249083;28;20194;-68
2023/07/19 13:59:12;;;;;;;10.10;6.07;;;;;;;;;;6252419;28;20212;-68
2023/07/19 14:02:13;;;;;;;15.90;6.60;;;;;;;;;;6249758;28;20304;-65
2023/07/19 14:05:14;;;;;;;17.57;6.67;;;;;;;;;;6263367;28;20201;-68
2023/07/19 14:08:15;;;;;;;8.30;5.77;;;;;;;;;;6252627;28;20197;-68
2023/07/19 14:11:16;;;;;;;10.03;5.90;;;;;;;;;;6246193;28;20191;-68
2023/07/19 14:14:17;;;;;;;10.17;5.47;;;;;;;;;;6237853;28;20194;-68
2023/07/19 14:17:19;;;;;;;9.57;5.73;;;;;;;;;;6241974;28;20223;-68
2023/07/19 14:20:21;;;;;;;10.07;5.57;;;;;;;;;;6247983;28;20197;-68
2023/07/19 14:23:22;;;;;;;10.33;6.23;;;;;;;;;;6250185;28;20236;-69
2023/07/19 14:26:23;;;;;;;11.63;5.83;;;;;;;;;;6240551;28;20190;-69
2023/07/19 14:29:24;;;;;;;11.97;5.90;;;;;;;;;;6251955;28;20241;-69
2023/07/19 14:32:25;;;;;;;7.90;5.53;;;;;;;;;;6250435;28;20197;-69
2023/07/19 14:35:26;;;;;;;9.77;6.00;;;;;;;;;;6266902;28;20201;-69
2023/07/19 14:38:28;;;;;;;10.43;5.87;;;;;;;;;;6263405;28;20198;-68
2023/07/19 14:41:29;;;;;;;7.80;5.70;;;;;;;;;;6247998;28;20214;-68
2023/07/19 14:44:30;;;;;;;7.80;5.70;;;;;;;;;;6240284;28;20198;-67
2023/07/19 14:47:35;;;;;;;8.70;5.67;;;;;;;;;;6244701;28;20187;-69
2023/07/19 14:50:36;;;;;;;6.67;5.13;;;;;;;;;;6251994;28;20213;-68
2023/07/19 14:53:37;;;;;;;10.43;5.40;;;;;;;;;;6264517;28;20223;-69
2023/07/19 14:56:38;;;;;;;10.00;5.67;;;;;;;;;;6245887;28;20203;-68
2023/07/19 14:59:39;;;;;;;6.70;6.03;;;;;;;;;;6251682;28;20348;-69
2023/07/19 15:02:40;;;;;;;6.67;5.87;;;;;;;;;;6246191;28;20213;-68
2023/07/19 15:05:41;;;;;;;8.33;6.23;;;;;;;;;;6257337;28;20210;-68
2023/07/19 15:08:42;;;;;;;7.90;6.13;;;;;;;;;;6248784;28;20196;-69
2023/07/19 15:11:43;;;;;;;9.63;6.53;;;;;;;;;;6247453;28;20240;-69
2023/07/19 15:14:45;;;;;;;7.73;6.10;;;;;;;;;;6253604;28;20201;-69
2023/07/19 15:17:46;;;;;;;12.47;6.57;;;;;;;;;;6244647;28;20205;-69
2023/07/19 15:20:47;;;;;;;7.40;5.83;;;;;;;;;;6264611;28;20202;-69
2023/07/19 15:23:48;;;;;;;8.00;5.87;;;;;;;;;;6236206;28;20308;-69
2023/07/19 15:26:49;;;;;;;9.87;6.23;;;;;;;;;;6244968;28;20280;-68
2023/07/19 15:29:50;;;;;;;11.37;5.47;;;;;;;;;;6251663;28;20291;-68
2023/07/19 15:32:51;;;;;;;6.67;5.23;;;;;;;;;;6255520;28;20197;-68
2023/07/19 15:35:52;;;;;;;8.60;5.57;;;;;;;;;;6255745;28;20206;-69
2023/07/19 15:38:53;;;;;;;9.43;5.40;;;;;;;;;;6252287;28;20225;-68
2023/07/19 15:41:54;;;;;;;9.33;5.63;;;;;;;;;;6253400;28;20310;-68
2023/07/19 15:44:55;;;;;;;7.33;4.80;;;;;;;;;;6269289;28;20193;-67
2023/07/19 15:47:56;;;;;;;7.87;4.47;;;;;;;;;;6250256;28;20194;-69
2023/07/19 15:50:59;;;;;;;6.93;4.50;;;;;;;;;;6250768;28;20198;-68
2023/07/19 15:54:00;;;;;;;9.63;5.10;;;;;;;;;;6249179;28;20194;-68
2023/07/19 15:57:01;;;;;;;6.37;4.90;;;;;;;;;;6264543;28;20202;-73
2023/07/19 16:00:02;;;;;;;6.23;4.50;;;;;;;;;;6274414;28;20193;-74
2023/07/19 16:03:03;;;;;;;6.47;4.53;;;;;;;;;;6266647;28;20221;-71
2023/07/19 16:06:07;;;;;;;5.13;4.30;;;;;;;;;;6243753;28;20227;-71
2023/07/19 16:09:08;;;;;;;6.43;4.00;;;;;;;;;;6249311;28;20221;-72
2023/07/19 16:12:09;;;;;;;6.20;4.50;;;;;;;;;;6260063;28;20210;-70
2023/07/19 16:15:11;;;;;;;5.60;4.00;;;;;;;;;;6266283;28;20202;-74
2023/07/19 16:18:12;;;;;;;5.93;4.03;;;;;;;;;;6257896;28;20219;-74
2023/07/19 16:21:13;;;;;;;6.80;3.63;;;;;;;;;;6272972;28;20198;-74
2023/07/19 16:24:14;;;;;;;5.27;3.90;;;;;;;;;;6254869;28;20189;-73
2023/07/19 16:27:15;;;;;;;6.77;4.47;;;;;;;;;;6236364;28;20288;-74
2023/07/19 16:30:16;;;;;;;8.37;4.87;;;;;;;;;;6242157;28;20202;-74
2023/07/19 16:33:17;;;;;;;8.10;4.73;;;;;;;;;;6246486;28;20186;-73
2023/07/19 16:36:18;;;;;;;5.03;4.33;;;;;;;;;;6250959;28;20182;-76
2023/07/19 16:39:19;;;;;;;6.73;4.33;;;;;;;;;;6265831;28;20197;-75
2023/07/19 16:42:22;;;;;;;8.80;4.37;;;;;;;;;;6242768;28;20206;-75
2023/07/19 16:45:24;;;;;;;6.50;4.33;;;;;;;;;;6247820;28;20190;-74
2023/07/19 16:48:25;;;;;;;8.70;4.43;;;;;;;;;;6259145;28;20186;-73
2023/07/19 16:51:26;;;;;;;6.27;4.23;;;;;;;;;;6245236;28;20197;-74
2023/07/19 16:54:27;;;;;;;8.43;4.83;;;;;;;;;;6248599;28;20190;-74
2023/07/19 16:57:28;;;;;;;6.90;4.50;;;;;;;;;;6249924;28;20205;-74
2023/07/19 17:00:29;;;;;;;7.40;4.23;;;;;;;;;;6245537;28;20206;-75
2023/07/19 17:03:31;;;;;;;7.03;4.57;;;;;;;;;;6273457;28;20197;-75
2023/07/19 17:06:32;;;;;;;8.23;4.27;;;;;;;;;;6256828;28;20186;-74
2023/07/19 17:09:33;;;;;;;7.27;4.33;;;;;;;;;;6247030;28;20226;-74
2023/07/19 17:12:34;;;;;;;9.83;4.90;;;;;;;;;;6245887;28;20190;-75
2023/07/19 17:15:35;;;;;;;5.83;4.20;;;;;;;;;;6267010;28;20206;-75
2023/07/19 17:18:36;;;;;;;5.27;4.23;;;;;;;;;;6251114;28;20194;-75
2023/07/19 17:21:39;;;;;;;6.80;4.23;;;;;;;;;;6247863;28;20209;-74
2023/07/19 17:24:40;;;;;;;7.80;4.73;;;;;;;;;;6250241;28;20186;-74
2023/07/19 17:27:41;;;;;;;7.40;4.67;;;;;;;;;;6240033;28;20320;-68
2023/07/19 17:30:42;;;;;;;8.80;4.20;;;;;;;;;;6245108;28;20190;-68
2023/07/19 17:33:43;;;;;;;7.90;4.60;;;;;;;;;;6244477;28;20249;-72
2023/07/19 17:36:44;;;;;;;7.17;4.30;;;;;;;;;;6245571;28;20257;-74
2023/07/19 17:39:45;;;;;;;7.20;5.00;;;;;;;;;;6240088;28;20201;-73
2023/07/19 17:42:46;;;;;;;6.63;4.53;;;;;;;;;;6240652;28;20224;-73
2023/07/19 17:45:48;;;;;;;10.30;4.57;;;;;;;;;;6244388;28;20194;-68
2023/07/19 17:48:51;;;;;;;6.30;4.40;;;;;;;;;;6252032;28;20195;-70
2023/07/19 17:51:53;;;;;;;5.23;4.30;;;;;;;;;;6233581;28;20195;-68
2023/07/19 17:54:54;;;;;;;5.47;4.30;;;;;;;;;;6247888;28;20244;-66
2023/07/19 17:57:56;;;;;;;5.63;4.10;;;;;;;;;;6257175;28;20267;-70
2023/07/19 18:00:58;;;;;;;5.97;4.43;;;;;;;;;;6264462;28;20186;-70
2023/07/19 18:03:59;;;;;;;5.90;4.07;;;;;;;;;;6260724;28;20213;-70
2023/07/19 18:07:01;;;;;;;10.50;4.57;;;;;;;;;;6263089;28;20190;-71
2023/07/19 18:10:02;;;;;;;10.67;4.70;;;;;;;;;;6259945;28;20256;-67
2023/07/19 18:13:04;;;;;;;7.93;4.43;;;;;;;;;;6259442;28;20239;-70